Time;durP1;ratioP1;P1;durP2;ratioP2;P2;SDS_P1;SDS_P2;PMS_P1;PMS_P2;Temp;Humidity;BMP_temperature;BMP_pressure;BME280_temperature;BME280_humidity;BME280_pressure;Samples;Min_cycle;Max_cycle;Signal;HPM_P1;HPM_P2
2023/05/22 00:00:34;;;;;;;11.97;6.40;;;15.60;98.00;;;;;;5052549;28;20461;-68
2023/05/22 00:03:02;;;;;;;16.57;7.07;;;15.50;98.00;;;;;;5052320;28;20501;-67
2023/05/22 00:05:33;;;;;;;12.40;6.33;;;15.50;98.00;;;;;;5052293;28;20453;-67
2023/05/22 00:08:01;;;;;;;12.60;6.23;;;15.40;98.00;;;;;;5052031;28;20465;-67
2023/05/22 00:10:28;;;;;;;13.73;6.20;;;15.30;98.00;;;;;;5052151;28;20944;-68
2023/05/22 00:12:55;;;;;;;12.50;6.23;;;15.40;98.00;;;;;;5051892;28;20450;-68
2023/05/22 00:15:22;;;;;;;13.07;6.37;;;15.30;98.00;;;;;;5034328;28;20461;-67
2023/05/22 00:17:52;;;;;;;12.93;6.30;;;15.20;98.00;;;;;;5051678;28;20489;-67
2023/05/22 00:20:20;;;;;;;11.53;6.30;;;15.10;98.00;;;;;;5051854;28;20822;-68
2023/05/22 00:22:48;;;;;;;16.87;6.70;;;15.10;98.00;;;;;;5051801;28;20948;-68
2023/05/22 00:25:19;;;;;;;13.57;6.57;;;15.10;98.00;;;;;;5051692;28;20450;-68
2023/05/22 00:27:47;;;;;;;14.43;6.80;;;15.00;98.00;;;;;;5051782;28;20535;-68
2023/05/22 00:30:14;;;;;;;12.30;5.63;;;15.00;98.00;;;;;;5051647;28;20457;-67
2023/05/22 00:32:43;;;;;;;16.03;7.33;;;14.90;98.00;;;;;;5050366;28;20453;-68
2023/05/22 00:35:17;;;;;;;12.40;5.73;;;14.90;98.00;;;;;;5051596;28;20476;-68
2023/05/22 00:37:45;;;;;;;16.30;6.73;;;15.00;98.00;;;;;;5051591;28;20491;-68
2023/05/22 00:40:15;;;;;;;14.83;6.03;;;15.10;98.00;;;;;;5051513;28;20457;-68
2023/05/22 00:42:43;;;;;;;13.27;5.80;;;15.10;98.00;;;;;;5051552;28;21019;-67
2023/05/22 00:45:11;;;;;;;12.57;6.00;;;15.00;98.00;;;;;;5051338;28;20922;-67
2023/05/22 00:47:40;;;;;;;12.60;5.97;;;15.10;98.00;;;;;;5051278;28;20469;-68
2023/05/22 00:50:10;;;;;;;14.10;6.00;;;15.00;98.00;;;;;;5051336;28;20545;-68
2023/05/22 00:52:41;;;;;;;13.47;6.37;;;15.00;98.00;;;;;;5051462;28;20462;-67
2023/05/22 00:55:10;;;;;;;15.93;6.50;;;14.90;98.00;;;;;;5051581;28;20523;-68
2023/05/22 00:57:43;;;;;;;13.17;5.90;;;14.70;98.00;;;;;;5051652;28;20486;-68
2023/05/22 01:00:11;;;;;;;10.30;6.10;;;14.60;98.00;;;;;;5049964;28;20965;-68
2023/05/22 01:02:38;;;;;;;10.57;5.20;;;14.50;98.00;;;;;;5051176;28;20458;-68
2023/05/22 01:05:06;;;;;;;15.73;5.70;;;14.60;98.00;;;;;;5050764;28;20457;-68
2023/05/22 01:07:36;;;;;;;11.10;6.00;;;14.60;98.00;;;;;;5051132;28;20772;-68
2023/05/22 01:10:06;;;;;;;11.50;5.27;;;14.60;98.00;;;;;;5050980;28;20481;-68
2023/05/22 01:12:43;;;;;;;12.47;5.90;;;14.40;98.00;;;;;;5051039;28;20964;-68
2023/05/22 01:15:19;;;;;;;18.30;6.70;;;14.60;98.00;;;;;;5051021;28;20562;-68
2023/05/22 01:17:52;;;;;;;13.30;6.00;;;14.70;98.00;;;;;;5049807;28;20867;-68
2023/05/22 01:20:25;;;;;;;11.03;5.40;;;14.60;98.00;;;;;;5050915;28;20501;-67
2023/05/22 01:23:33;;;;;;;9.83;5.27;;;14.40;98.00;;;;;;5050221;28;20488;-68
2023/05/22 01:26:22;;;;;;;12.10;6.10;;;14.30;98.00;;;;;;5050855;28;20531;-68
2023/05/22 01:29:11;;;;;;;14.57;6.57;;;14.30;98.00;;;;;;5050892;28;20461;-68
2023/05/22 01:31:46;;;;;;;14.50;6.57;;;14.30;98.00;;;;;;5050941;28;20468;-68
2023/05/22 01:34:14;;;;;;;12.07;5.70;;;14.30;98.00;;;;;;5049325;28;20499;-67
2023/05/22 01:36:45;;;;;;;11.37;5.40;;;14.30;98.00;;;;;;5050777;28;20448;-68
2023/05/22 01:39:12;;;;;;;11.67;5.23;;;14.30;98.00;;;;;;5050792;28;20937;-68
2023/05/22 01:41:40;;;;;;;14.40;5.93;;;14.20;98.00;;;;;;5050762;28;20461;-68
2023/05/22 01:44:08;;;;;;;12.33;6.30;;;14.20;98.00;;;;;;5050632;28;20466;-67
2023/05/22 01:46:35;;;;;;;11.10;5.33;;;14.30;98.00;;;;;;5049698;28;20980;-68
2023/05/22 01:49:04;;;;;;;15.33;5.80;;;14.20;98.00;;;;;;5050920;28;20458;-68
2023/05/22 01:51:42;;;;;;;10.97;5.37;;;14.10;98.00;;;;;;5049718;28;20450;-67
2023/05/22 01:54:17;;;;;;;9.97;5.57;;;14.10;98.00;;;;;;5050828;28;20797;-67
2023/05/22 01:56:51;;;;;;;14.63;6.70;;;14.40;98.00;;;;;;5049610;28;20461;-68
2023/05/22 01:59:25;;;;;;;12.93;6.27;;;14.30;98.00;;;;;;5050560;28;20986;-68
2023/05/22 02:01:54;;;;;;;16.97;6.77;;;14.20;98.00;;;;;;5050715;28;20552;-67
2023/05/22 02:04:23;;;;;;;11.50;6.40;;;14.10;98.00;;;;;;5050531;28;20465;-68
2023/05/22 02:06:53;;;;;;;12.83;6.20;;;14.00;98.00;;;;;;5050526;28;20457;-68
2023/05/22 02:09:23;;;;;;;11.13;5.50;;;14.10;98.00;;;;;;5049270;28;20497;-67
2023/05/22 02:11:51;;;;;;;14.37;6.97;;;14.10;98.00;;;;;;5050657;28;20453;-68
2023/05/22 02:14:18;;;;;;;9.67;5.23;;;14.20;98.00;;;;;;5050534;28;20459;-67
2023/05/22 02:16:49;;;;;;;12.10;5.53;;;14.20;98.00;;;;;;5050272;28;20884;-68
2023/05/22 02:19:17;;;;;;;11.27;5.70;;;14.10;98.00;;;;;;5054002;28;20534;-67
2023/05/22 02:21:45;;;;;;;11.10;6.10;;;14.10;98.00;;;;;;5054114;28;20865;-67
2023/05/22 02:24:13;;;;;;;13.00;5.87;;;14.10;98.00;;;;;;5053951;28;20572;-68
2023/05/22 02:26:41;;;;;;;12.43;5.77;;;14.00;98.00;;;;;;5054010;28;20461;-68
2023/05/22 02:29:08;;;;;;;18.77;6.57;;;13.90;98.00;;;;;;5053864;28;20956;-67
2023/05/22 02:31:35;;;;;;;12.70;5.70;;;13.90;98.00;;;;;;5052729;28;20450;-68
2023/05/22 02:34:04;;;;;;;11.20;5.83;;;13.90;98.00;;;;;;5052612;28;20457;-67
2023/05/22 02:36:31;;;;;;;16.97;6.27;;;13.80;98.00;;;;;;5053873;28;20883;-67
2023/05/22 02:38:59;;;;;;;12.23;5.60;;;13.80;98.00;;;;;;5053631;28;20481;-67
2023/05/22 02:41:26;;;;;;;12.50;5.90;;;13.90;98.00;;;;;;5053665;28;20457;-67
2023/05/22 02:43:54;;;;;;;14.13;6.43;;;14.10;98.00;;;;;;5053774;28;20504;-68
2023/05/22 02:46:21;;;;;;;13.37;6.27;;;14.10;98.00;;;;;;5052354;28;20468;-67
2023/05/22 02:48:49;;;;;;;12.80;6.10;;;14.20;98.00;;;;;;5053703;28;20462;-68
2023/05/22 02:51:16;;;;;;;13.20;5.17;;;14.30;98.00;;;;;;5052220;28;20454;-67
2023/05/22 02:53:43;;;;;;;12.63;5.77;;;14.20;98.00;;;;;;5053448;28;20561;-67
2023/05/22 02:56:11;;;;;;;13.90;5.37;;;13.90;98.00;;;;;;5053212;28;20458;-68
2023/05/22 02:58:38;;;;;;;11.27;5.27;;;14.00;98.00;;;;;;5051846;28;20524;-68
2023/05/22 03:01:07;;;;;;;14.20;6.00;;;13.90;98.00;;;;;;5053241;28;20507;-68
2023/05/22 03:03:35;;;;;;;10.80;5.50;;;14.00;98.00;;;;;;5053345;28;20819;-67
2023/05/22 03:06:02;;;;;;;11.40;5.97;;;14.10;98.00;;;;;;5053193;28;20960;-67
2023/05/22 03:08:31;;;;;;;12.87;6.10;;;14.10;98.00;;;;;;5051982;28;20485;-67
2023/05/22 03:10:59;;;;;;;11.77;5.53;;;14.00;98.00;;;;;;5052945;28;21040;-67
2023/05/22 03:13:27;;;;;;;12.87;6.27;;;14.00;98.00;;;;;;5052908;28;20489;-67
2023/05/22 03:15:54;;;;;;;11.53;5.50;;;14.00;98.00;;;;;;5052864;28;20963;-67
2023/05/22 03:18:22;;;;;;;15.90;6.57;;;13.90;98.00;;;;;;5052907;28;20481;-68
2023/05/22 03:20:49;;;;;;;9.17;5.20;;;13.70;98.00;;;;;;5053169;28;20457;-67
2023/05/22 03:23:16;;;;;;;12.27;6.50;;;13.60;98.00;;;;;;5053007;28;20545;-67
2023/05/22 03:25:43;;;;;;;12.23;6.00;;;13.50;98.00;;;;;;5052895;28;20820;-68
2023/05/22 03:28:11;;;;;;;12.43;5.50;;;13.30;98.00;;;;;;5052649;28;20459;-67
2023/05/22 03:30:39;;;;;;;10.17;5.93;;;13.30;98.00;;;;;;5052797;28;20456;-67
2023/05/22 03:33:06;;;;;;;13.07;6.13;;;13.40;98.00;;;;;;5051707;28;20449;-67
2023/05/22 03:35:36;;;;;;;12.93;5.70;;;13.50;98.00;;;;;;5052655;28;20461;-67
2023/05/22 03:38:03;;;;;;;12.00;6.37;;;13.60;98.00;;;;;;5052743;28;20539;-67
2023/05/22 03:40:31;;;;;;;12.70;5.97;;;13.80;98.00;;;;;;5052681;28;20461;-67
2023/05/22 03:42:58;;;;;;;11.43;6.23;;;13.80;98.00;;;;;;5051825;28;20532;-68
2023/05/22 03:45:25;;;;;;;11.17;5.33;;;13.70;98.00;;;;;;5052440;28;20960;-67
2023/05/22 03:47:54;;;;;;;11.83;5.90;;;13.70;98.00;;;;;;5052347;28;20461;-68
2023/05/22 03:50:21;;;;;;;11.53;5.60;;;13.90;98.00;;;;;;5052192;28;21006;-67
2023/05/22 03:52:48;;;;;;;12.53;6.20;;;14.00;98.00;;;;;;5051158;28;20450;-68
2023/05/22 03:55:16;;;;;;;13.20;6.70;;;14.10;98.00;;;;;;5052480;28;20450;-67
2023/05/22 03:57:43;;;;;;;13.87;5.87;;;14.40;98.00;;;;;;5052141;28;20892;-67
2023/05/22 04:00:12;;;;;;;12.57;5.63;;;14.30;98.00;;;;;;5052230;28;20967;-67
2023/05/22 04:02:43;;;;;;;19.10;6.73;;;14.20;98.00;;;;;;5052256;28;20481;-67
2023/05/22 04:05:12;;;;;;;15.77;6.63;;;14.20;98.00;;;;;;5052132;28;20551;-67
2023/05/22 04:07:39;;;;;;;12.93;6.13;;;14.20;98.00;;;;;;5051905;28;20465;-67
2023/05/22 04:10:07;;;;;;;13.63;6.13;;;14.20;98.00;;;;;;5051904;28;20450;-68
2023/05/22 04:12:34;;;;;;;11.80;6.17;;;14.30;98.00;;;;;;5051865;28;20461;-67
2023/05/22 04:15:01;;;;;;;10.90;6.20;;;14.30;98.00;;;;;;5050561;28;20465;-67
2023/05/22 04:17:32;;;;;;;11.90;5.63;;;14.20;98.00;;;;;;5051848;28;20457;-67
2023/05/22 04:20:07;;;;;;;11.90;5.77;;;14.10;98.00;;;;;;5051549;28;20519;-67
2023/05/22 04:22:35;;;;;;;14.63;6.40;;;14.10;98.00;;;;;;5051828;28;20488;-67
2023/05/22 04:25:03;;;;;;;17.50;7.63;;;14.10;98.00;;;;;;5051616;28;20507;-67
2023/05/22 04:27:32;;;;;;;16.10;7.43;;;14.10;98.00;;;;;;5051635;28;20479;-67
2023/05/22 04:29:59;;;;;;;13.27;6.30;;;14.00;98.00;;;;;;5051812;28;20458;-67
2023/05/22 04:32:26;;;;;;;12.77;5.63;;;14.10;98.00;;;;;;5051968;28;20485;-67
2023/05/22 04:34:53;;;;;;;12.70;5.77;;;14.20;98.00;;;;;;5052067;28;20548;-67
2023/05/22 04:37:20;;;;;;;12.20;6.03;;;14.20;98.00;;;;;;5050453;28;20456;-67
2023/05/22 04:39:51;;;;;;;13.20;6.10;;;14.10;98.00;;;;;;5051010;28;20489;-67
2023/05/22 04:42:19;;;;;;;13.30;6.10;;;14.00;98.00;;;;;;5051729;28;20468;-68
2023/05/22 04:44:47;;;;;;;13.93;6.53;;;14.10;98.00;;;;;;5052603;28;20462;-67
2023/05/22 04:47:14;;;;;;;14.83;6.33;;;14.30;98.00;;;;;;5052228;28;20495;-67
2023/05/22 04:49:42;;;;;;;13.70;6.20;;;14.30;98.00;;;;;;5051658;28;20555;-67
2023/05/22 04:52:10;;;;;;;12.07;6.00;;;14.40;98.00;;;;;;5052540;28;20548;-67
2023/05/22 04:54:37;;;;;;;14.20;6.30;;;14.70;98.00;;;;;;5052244;28;20544;-67
2023/05/22 04:57:06;;;;;;;16.63;5.97;;;14.80;98.00;;;;;;5051144;28;20866;-67
2023/05/22 04:59:36;;;;;;;15.70;6.57;;;14.80;98.00;;;;;;5051107;28;20531;-67
2023/05/22 05:02:04;;;;;;;19.27;5.93;;;14.80;98.00;;;;;;5051237;28;20511;-67
2023/05/22 05:04:31;;;;;;;11.37;6.17;;;14.80;98.00;;;;;;5051308;28;20450;-67
2023/05/22 05:06:59;;;;;;;17.63;6.13;;;14.70;98.00;;;;;;5051284;28;20831;-67
2023/05/22 05:09:26;;;;;;;14.60;6.17;;;14.70;98.00;;;;;;5051126;28;20466;-67
2023/05/22 05:11:53;;;;;;;15.40;6.70;;;14.80;98.00;;;;;;5050135;28;20832;-67
2023/05/22 05:14:22;;;;;;;12.87;5.87;;;14.90;98.00;;;;;;5051238;28;20454;-67
2023/05/22 05:16:50;;;;;;;14.10;6.57;;;15.00;98.00;;;;;;5051154;28;20467;-67
2023/05/22 05:19:20;;;;;;;11.50;5.70;;;15.10;98.00;;;;;;5051006;28;20491;-67
2023/05/22 05:21:48;;;;;;;12.20;5.80;;;15.20;98.00;;;;;;5051205;28;20457;-68
2023/05/22 05:24:17;;;;;;;13.10;6.37;;;15.40;98.00;;;;;;5051027;28;20457;-67
2023/05/22 05:26:44;;;;;;;13.00;6.90;;;15.50;98.00;;;;;;5051102;28;20493;-67
2023/05/22 05:29:11;;;;;;;13.50;6.30;;;15.60;98.00;;;;;;5051405;28;20516;-68
2023/05/22 05:31:40;;;;;;;14.73;7.00;;;15.50;98.00;;;;;;5051518;28;20509;-67
2023/05/22 05:34:07;;;;;;;13.67;6.13;;;15.50;98.00;;;;;;5051087;28;20472;-67
2023/05/22 05:36:34;;;;;;;14.03;6.50;;;15.50;98.00;;;;;;5050911;28;20472;-67
2023/05/22 05:39:03;;;;;;;15.20;6.83;;;15.60;98.00;;;;;;5050846;28;20534;-67
2023/05/22 05:41:30;;;;;;;13.43;6.23;;;15.60;98.00;;;;;;5050787;28;20503;-67
2023/05/22 05:43:58;;;;;;;15.00;7.10;;;15.60;98.00;;;;;;5049685;28;20453;-67
2023/05/22 05:46:26;;;;;;;18.07;6.70;;;15.70;98.00;;;;;;5050774;28;20461;-67
2023/05/22 05:48:54;;;;;;;16.17;6.33;;;15.70;98.00;;;;;;5050735;28;20457;-67
2023/05/22 05:51:22;;;;;;;12.07;5.60;;;15.80;98.00;;;;;;5050777;28;21089;-67
2023/05/22 05:53:49;;;;;;;17.13;6.87;;;15.90;98.00;;;;;;5053886;28;20879;-67
2023/05/22 05:56:16;;;;;;;13.40;6.57;;;15.90;98.00;;;;;;5054616;28;20503;-67
2023/05/22 05:58:43;;;;;;;17.20;7.37;;;16.10;98.00;;;;;;5054507;28;20490;-67
2023/05/22 06:01:11;;;;;;;16.80;6.37;;;16.20;98.00;;;;;;5054707;28;20449;-67
2023/05/22 06:03:38;;;;;;;14.40;6.53;;;16.20;98.00;;;;;;5053204;28;20727;-67
2023/05/22 06:06:07;;;;;;;17.43;6.87;;;16.30;98.00;;;;;;5054407;28;20464;-67
2023/05/22 06:08:34;;;;;;;18.80;6.50;;;16.40;98.00;;;;;;5054216;28;20493;-67
2023/05/22 06:11:02;;;;;;;12.97;5.70;;;16.60;98.00;;;;;;5053081;28;20457;-67
2023/05/22 06:13:29;;;;;;;15.60;6.80;;;16.80;98.00;;;;;;5053214;28;20470;-67
2023/05/22 06:15:56;;;;;;;18.20;6.43;;;16.80;98.00;;;;;;5054176;28;20457;-67
2023/05/22 06:18:25;;;;;;;13.97;6.17;;;16.90;98.00;;;;;;5054234;28;20532;-64
2023/05/22 06:20:52;;;;;;;12.93;6.13;;;16.90;98.00;;;;;;5056626;28;20461;-63
2023/05/22 06:23:21;;;;;;;14.60;6.60;;;16.90;98.00;;;;;;5067418;28;20521;-65
2023/05/22 06:25:48;;;;;;;12.40;6.23;;;17.00;98.00;;;;;;5054336;28;20454;-65
2023/05/22 06:28:15;;;;;;;14.33;6.30;;;17.10;98.00;;;;;;5054273;28;20553;-65
2023/05/22 06:30:42;;;;;;;15.47;7.10;;;17.30;98.00;;;;;;5054075;28;20548;-65
2023/05/22 06:33:09;;;;;;;16.20;7.50;;;17.50;98.00;;;;;;5053750;28;20878;-64
2023/05/22 06:35:36;;;;;;;13.40;6.80;;;17.50;98.00;;;;;;5053541;28;20810;-64
2023/05/22 06:38:03;;;;;;;14.80;6.50;;;17.70;98.00;;;;;;5053686;28;20473;-64
2023/05/22 06:40:32;;;;;;;14.10;6.50;;;17.80;98.00;;;;;;5053656;28;20560;-64
2023/05/22 06:42:59;;;;;;;11.60;6.43;;;17.80;98.00;;;;;;5052282;28;20515;-65
2023/05/22 06:45:26;;;;;;;14.40;7.13;;;17.80;98.00;;;;;;5053640;28;20551;-64
2023/05/22 06:47:53;;;;;;;15.30;7.10;;;17.90;98.00;;;;;;5053139;28;20519;-64
2023/05/22 06:50:21;;;;;;;14.27;6.70;;;18.00;98.00;;;;;;5053496;28;20537;-64
2023/05/22 06:52:49;;;;;;;16.93;6.37;;;18.10;98.00;;;;;;5053525;28;20544;-64
2023/05/22 06:55:16;;;;;;;13.13;6.53;;;18.20;98.00;;;;;;5053396;28;20527;-65
2023/05/22 06:57:45;;;;;;;17.13;7.90;;;18.30;98.00;;;;;;5053421;28;20464;-64
2023/05/22 07:00:14;;;;;;;16.20;6.93;;;18.40;98.00;;;;;;5051799;28;20485;-65
2023/05/22 07:02:41;;;;;;;13.30;6.63;;;18.50;98.00;;;;;;5051867;28;20450;-64
2023/05/22 07:05:09;;;;;;;14.03;6.40;;;18.60;98.00;;;;;;5051666;28;20968;-64
2023/05/22 07:07:36;;;;;;;14.77;7.10;;;18.70;98.00;;;;;;5053332;28;20919;-64
2023/05/22 07:10:03;;;;;;;13.83;6.53;;;18.80;98.00;;;;;;5051691;28;20932;-65
2023/05/22 07:12:32;;;;;;;11.07;5.83;;;18.90;98.00;;;;;;5053451;28;20461;-65
2023/05/22 07:15:00;;;;;;;14.37;6.63;;;19.00;98.00;;;;;;5052805;28;20469;-65
2023/05/22 07:17:27;;;;;;;13.97;6.83;;;19.20;98.00;;;;;;5053055;28;20476;-64
2023/05/22 07:19:54;;;;;;;14.80;7.20;;;19.30;98.00;;;;;;5052840;28;20482;-65
2023/05/22 07:22:21;;;;;;;16.80;7.70;;;19.50;98.00;;;;;;5052890;28;20454;-65
2023/05/22 07:24:49;;;;;;;18.33;7.70;;;19.50;98.00;;;;;;5052938;28;20821;-64
2023/05/22 07:27:16;;;;;;;17.00;7.03;;;19.60;98.00;;;;;;5052405;28;20446;-64
2023/05/22 07:29:43;;;;;;;13.93;6.50;;;19.60;98.00;;;;;;5052570;28;20461;-63
2023/05/22 07:32:11;;;;;;;15.10;7.10;;;19.80;98.00;;;;;;5052429;28;20983;-63
2023/05/22 07:34:39;;;;;;;13.80;6.10;;;19.90;98.00;;;;;;5064098;28;20523;-65
2023/05/22 07:37:09;;;;;;;19.50;7.27;;;19.90;98.00;;;;;;5072689;28;20464;-64
2023/05/22 07:39:36;;;;;;;12.30;6.57;;;19.90;98.00;;;;;;5070972;28;20485;-64
2023/05/22 07:42:04;;;;;;;13.27;6.40;;;20.00;98.00;;;;;;5071413;28;20482;-65
2023/05/22 07:44:32;;;;;;;15.33;7.60;;;20.10;98.00;;;;;;5072381;28;20866;-64
2023/05/22 07:46:59;;;;;;;16.07;7.63;;;20.20;98.00;;;;;;5071876;28;20859;-64
2023/05/22 07:49:28;;;;;;;18.37;8.10;;;20.30;98.00;;;;;;5071891;28;20460;-64
2023/05/22 07:51:55;;;;;;;17.27;7.87;;;20.40;98.00;;;;;;5070828;28;20484;-64
2023/05/22 07:54:23;;;;;;;15.60;7.80;;;20.50;98.00;;;;;;5072272;28;20449;-64
2023/05/22 07:56:50;;;;;;;14.30;7.93;;;20.60;98.00;;;;;;5072499;28;21073;-64
2023/05/22 07:59:20;;;;;;;18.57;8.50;;;20.70;98.00;;;;;;5072373;28;20477;-64
2023/05/22 08:01:47;;;;;;;16.17;7.30;;;20.90;98.00;;;;;;5070954;28;20959;-64
2023/05/22 08:04:14;;;;;;;19.20;8.20;;;20.90;98.00;;;;;;5072318;28;20453;-63
2023/05/22 08:06:43;;;;;;;16.80;8.23;;;21.00;98.00;;;;;;5072133;28;20534;-64
2023/05/22 08:09:10;;;;;;;18.30;8.00;;;21.10;98.00;;;;;;5072106;28;20480;-65
2023/05/22 08:11:40;;;;;;;14.70;7.20;;;21.20;98.00;;;;;;5072007;28;20445;-64
2023/05/22 08:14:08;;;;;;;14.23;7.23;;;21.30;98.00;;;;;;5072070;28;20449;-65
2023/05/22 08:16:35;;;;;;;14.63;7.27;;;21.40;98.00;;;;;;5071415;28;20449;-64
2023/05/22 08:19:02;;;;;;;15.83;7.90;;;21.50;98.00;;;;;;5071855;28;20457;-64
2023/05/22 08:21:31;;;;;;;14.57;7.13;;;21.60;98.00;;;;;;5071746;28;20989;-63
2023/05/22 08:24:00;;;;;;;14.03;7.97;;;21.70;98.00;;;;;;5070541;28;20826;-63
2023/05/22 08:26:27;;;;;;;16.60;7.93;;;21.80;98.00;;;;;;5071864;28;20461;-64
2023/05/22 08:28:54;;;;;;;14.60;6.83;;;21.90;98.00;;;;;;5072008;28;20463;-64
2023/05/22 08:31:21;;;;;;;15.57;7.90;;;22.00;98.00;;;;;;5071756;28;20495;-64
2023/05/22 08:33:49;;;;;;;19.43;8.33;;;22.00;98.00;;;;;;5071779;28;20497;-64
2023/05/22 08:36:16;;;;;;;17.47;8.20;;;22.10;98.00;;;;;;5070339;28;20463;-65
2023/05/22 08:38:44;;;;;;;16.97;7.40;;;22.10;98.00;;;;;;5071751;28;20453;-64
2023/05/22 08:41:14;;;;;;;16.30;8.37;;;22.30;98.00;;;;;;5071540;28;20485;-63
2023/05/22 08:43:42;;;;;;;13.50;7.10;;;22.30;98.00;;;;;;5071499;28;20959;-64
2023/05/22 08:46:10;;;;;;;15.87;7.50;;;22.30;98.00;;;;;;5071267;28;20881;-64
2023/05/22 08:48:38;;;;;;;16.07;8.10;;;22.40;98.00;;;;;;5071399;28;20461;-64
2023/05/22 08:51:06;;;;;;;14.00;7.50;;;22.50;98.00;;;;;;5071187;28;20456;-64
2023/05/22 08:53:36;;;;;;;14.57;7.20;;;22.60;98.00;;;;;;5071504;28;20785;-65
2023/05/22 08:56:05;;;;;;;15.50;7.23;;;22.70;98.00;;;;;;5071286;28;20475;-65
2023/05/22 08:58:36;;;;;;;17.37;8.57;;;22.80;98.00;;;;;;5071659;28;20453;-64
2023/05/22 09:01:06;;;;;;;19.70;9.00;;;22.90;98.00;;;;;;5071327;28;20481;-64
2023/05/22 09:03:33;;;;;;;15.03;7.53;;;23.00;98.00;;;;;;5071269;28;20488;-64
2023/05/22 09:06:01;;;;;;;15.23;7.97;;;23.10;98.00;;;;;;5071218;28;20502;-64
2023/05/22 09:08:28;;;;;;;15.30;7.70;;;23.30;98.00;;;;;;5071456;28;20475;-64
2023/05/22 09:10:56;;;;;;;12.80;7.10;;;23.30;98.00;;;;;;5071343;28;20465;-64
2023/05/22 09:13:27;;;;;;;16.13;7.40;;;23.50;98.00;;;;;;5071212;28;20452;-65
2023/05/22 09:15:59;;;;;;;14.97;7.70;;;23.60;98.00;;;;;;5070781;28;20536;-65
2023/05/22 09:18:28;;;;;;;17.80;7.23;;;23.70;98.00;;;;;;5071292;28;20552;-63
2023/05/22 09:20:58;;;;;;;13.47;7.00;;;23.80;98.00;;;;;;5069538;28;20506;-63
2023/05/22 09:23:28;;;;;;;16.43;7.30;;;23.80;98.00;;;;;;5071272;28;20883;-63
2023/05/22 09:25:56;;;;;;;13.03;7.03;;;23.90;98.00;;;;;;5069087;28;20951;-64
2023/05/22 09:28:23;;;;;;;16.47;7.57;;;23.90;98.00;;;;;;5074942;28;20461;-62
2023/05/22 09:30:51;;;;;;;17.43;8.60;;;24.20;98.00;;;;;;5074918;28;20445;-63
2023/05/22 09:33:23;;;;;;;16.23;7.80;;;24.30;98.00;;;;;;5073647;28;21010;-63
2023/05/22 09:35:52;;;;;;;13.67;8.23;;;24.20;98.00;;;;;;5065768;28;20472;-63
2023/05/22 09:38:21;;;;;;;15.60;7.00;;;24.30;98.00;;;;;;5054615;28;21088;-64
2023/05/22 09:40:53;;;;;;;16.77;7.80;;;24.40;98.00;;;;;;5054539;28;20539;-65
2023/05/22 09:43:22;;;;;;;14.80;7.00;;;24.50;98.00;;;;;;5054701;28;20457;-63
2023/05/22 09:45:55;;;;;;;13.10;7.00;;;24.80;98.00;;;;;;5054463;28;20512;-62
2023/05/22 09:48:24;;;;;;;16.63;8.77;;;24.90;98.00;;;;;;5054242;28;20457;-63
2023/05/22 09:50:55;;;;;;;13.30;6.90;;;24.80;98.00;;;;;;5054399;28;20558;-63
2023/05/22 09:53:27;;;;;;;14.03;7.50;;;24.80;98.00;;;;;;5058025;28;20468;-63
2023/05/22 09:55:57;;;;;;;17.33;8.60;;;25.00;98.00;;;;;;5073811;28;20480;-62
2023/05/22 09:58:26;;;;;;;12.83;6.93;;;24.90;98.00;;;;;;5073992;28;20540;-63
2023/05/22 10:00:55;;;;;;;16.67;8.10;;;24.90;98.00;;;;;;5074183;28;20524;-63
2023/05/22 10:03:26;;;;;;;14.57;7.70;;;25.10;98.00;;;;;;5074231;28;20464;-64
2023/05/22 10:05:55;;;;;;;20.40;8.03;;;25.30;98.00;;;;;;5074240;28;20514;-63
2023/05/22 10:08:25;;;;;;;13.17;7.77;;;25.50;98.00;;;;;;5073569;28;20510;-64
2023/05/22 10:10:52;;;;;;;13.03;7.37;;;25.70;98.00;;;;;;5074497;28;20874;-63
2023/05/22 10:13:24;;;;;;;14.23;7.47;;;25.90;98.00;;;;;;5074441;28;20539;-64
2023/05/22 10:15:52;;;;;;;15.40;7.37;;;26.10;98.00;;;;;;5073767;28;20555;-63
2023/05/22 10:18:19;;;;;;;16.77;8.80;;;26.20;98.00;;;;;;5073372;28;20452;-63
2023/05/22 10:20:48;;;;;;;15.10;8.20;;;26.20;98.00;;;;;;5074298;28;20481;-63
2023/05/22 10:23:15;;;;;;;14.93;7.50;;;26.30;98.00;;;;;;5074411;28;20456;-64
2023/05/22 10:25:44;;;;;;;14.63;7.77;;;26.30;98.00;;;;;;5074510;28;20551;-63
2023/05/22 10:28:14;;;;;;;16.00;8.33;;;26.40;98.00;;;;;;5074389;28;20493;-63
2023/05/22 10:30:48;;;;;;;15.60;8.10;;;26.50;98.00;;;;;;5074395;28;20456;-64
2023/05/22 10:33:18;;;;;;;21.10;7.93;;;26.60;98.00;;;;;;5074187;28;20551;-63
2023/05/22 10:35:51;;;;;;;16.63;8.30;;;26.60;98.00;;;;;;5073075;28;20521;-63
2023/05/22 10:38:50;;;;;;;15.77;7.90;;;26.70;98.00;;;;;;5073473;28;20460;-63
2023/05/22 10:41:18;;;;;;;16.43;7.80;;;26.90;98.00;;;;;;5074134;28;20881;-63
2023/05/22 10:43:50;;;;;;;16.20;7.80;;;27.00;98.00;;;;;;5074281;28;20510;-64
2023/05/22 10:46:17;;;;;;;15.80;8.20;;;27.10;98.00;;;;;;5073857;28;20469;-63
2023/05/22 10:48:45;;;;;;;19.03;8.33;;;27.10;98.00;;;;;;5074097;28;20473;-63
2023/05/22 10:51:15;;;;;;;16.27;8.50;;;27.20;98.00;;;;;;5074040;28;20975;-63
2023/05/22 10:53:44;;;;;;;14.27;7.97;;;27.30;98.00;;;;;;5074296;28;20811;-63
2023/05/22 10:56:12;;;;;;;14.20;7.73;;;27.60;98.00;;;;;;5074005;28;20495;-63
2023/05/22 10:58:39;;;;;;;12.80;6.63;;;27.70;98.00;;;;;;5074380;28;20456;-62
2023/05/22 11:01:13;;;;;;;14.83;7.87;;;27.90;95.70;;;;;;5073796;28;20484;-63
2023/05/22 11:03:57;;;;;;;19.00;8.87;;;28.00;97.80;;;;;;5073963;28;20452;-63
2023/05/22 11:06:37;;;;;;;15.67;8.50;;;28.00;95.70;;;;;;5073598;28;20459;-63
2023/05/22 11:09:20;;;;;;;16.13;7.97;;;28.10;95.70;;;;;;5073784;28;20464;-63
2023/05/22 11:12:08;;;;;;;14.93;7.53;;;28.10;97.60;;;;;;5073426;28;20551;-63
2023/05/22 11:14:36;;;;;;;19.40;8.50;;;28.30;98.00;;;;;;5073397;28;20541;-63
2023/05/22 11:17:06;;;;;;;14.23;7.50;;;28.60;97.50;;;;;;5072893;28;20456;-63
2023/05/22 11:19:34;;;;;;;13.90;7.77;;;28.70;96.70;;;;;;5072136;28;20461;-63
2023/05/22 11:22:05;;;;;;;14.77;7.60;;;29.00;96.90;;;;;;5073094;28;20573;-62
2023/05/22 11:24:33;;;;;;;13.37;7.63;;;29.10;95.60;;;;;;5072988;28;20496;-63
2023/05/22 11:27:05;;;;;;;13.20;7.60;;;29.10;94.50;;;;;;5073059;28;20514;-63
2023/05/22 11:29:33;;;;;;;15.13;7.73;;;29.10;93.30;;;;;;5073459;28;20555;-63
2023/05/22 11:32:01;;;;;;;15.70;7.73;;;28.90;92.40;;;;;;5072759;28;20453;-63
2023/05/22 11:34:29;;;;;;;14.73;7.67;;;29.00;97.10;;;;;;5072674;28;20461;-63
2023/05/22 11:37:00;;;;;;;15.20;7.90;;;29.30;94.20;;;;;;5073152;28;20457;-64
2023/05/22 11:39:28;;;;;;;13.23;8.00;;;29.70;93.40;;;;;;5071809;28;20887;-63
2023/05/22 11:41:56;;;;;;;15.10;8.00;;;29.90;93.50;;;;;;5073005;28;20476;-63
2023/05/22 11:44:23;;;;;;;15.70;7.77;;;29.80;90.00;;;;;;5073348;28;20460;-63
2023/05/22 11:46:51;;;;;;;15.40;7.20;;;29.70;91.20;;;;;;5072867;28;20515;-63
2023/05/22 11:49:22;;;;;;;16.90;8.57;;;29.90;90.00;;;;;;5073205;28;20468;-63
2023/05/22 11:51:50;;;;;;;11.80;7.43;;;30.00;88.40;;;;;;5072090;28;21105;-61
2023/05/22 11:54:19;;;;;;;14.97;7.40;;;30.20;89.40;;;;;;5073231;28;20539;-68
2023/05/22 11:56:48;;;;;;;13.43;7.20;;;30.30;91.00;;;;;;5072694;28;20810;-66
2023/05/22 11:59:15;;;;;;;11.60;6.80;;;30.30;91.00;;;;;;5072912;28;20453;-64
2023/05/22 12:01:42;;;;;;;16.50;8.47;;;30.30;89.90;;;;;;5072507;28;20492;-64
2023/05/22 12:04:09;;;;;;;14.00;7.03;;;30.20;89.40;;;;;;5072015;28;20449;-65
2023/05/22 12:06:36;;;;;;;15.43;8.00;;;30.30;88.90;;;;;;5072550;28;20456;-65
2023/05/22 12:09:07;;;;;;;17.20;8.20;;;30.10;87.40;;;;;;5072619;28;20780;-65
2023/05/22 12:11:35;;;;;;;13.63;7.30;;;30.10;88.10;;;;;;5072507;28;20560;-66
2023/05/22 12:14:04;;;;;;;12.47;7.67;;;30.10;91.40;;;;;;5072529;28;20923;-63
2023/05/22 12:16:35;;;;;;;12.33;6.50;;;30.20;89.20;;;;;;5072367;28;20539;-71
2023/05/22 12:19:05;;;;;;;13.37;7.70;;;30.30;89.90;;;;;;5072474;28;20492;-72
2023/05/22 12:21:35;;;;;;;12.80;7.37;;;30.50;87.60;;;;;;5072250;28;20545;-67
2023/05/22 12:24:04;;;;;;;14.77;8.07;;;30.60;88.50;;;;;;5072341;28;20850;-68
2023/05/22 12:26:32;;;;;;;13.23;6.77;;;30.70;84.80;;;;;;5072313;28;20453;-63
2023/05/22 12:28:59;;;;;;;15.10;7.30;;;30.60;85.50;;;;;;5072178;28;20464;-63
2023/05/22 12:31:34;;;;;;;11.73;7.20;;;30.60;86.00;;;;;;5071945;28;20445;-64
2023/05/22 12:34:03;;;;;;;13.00;7.07;;;30.80;88.60;;;;;;5072300;28;21005;-64
2023/05/22 12:36:35;;;;;;;14.27;7.87;;;31.00;85.90;;;;;;5072230;28;20468;-64
2023/05/22 12:39:06;;;;;;;16.73;8.10;;;31.20;85.60;;;;;;5072096;28;20464;-64
2023/05/22 12:41:33;;;;;;;15.00;7.30;;;31.40;87.00;;;;;;5072061;28;20484;-64
2023/05/22 12:44:02;;;;;;;11.27;6.80;;;31.50;86.90;;;;;;5070977;28;20973;-64
2023/05/22 12:46:31;;;;;;;12.57;7.30;;;31.70;84.20;;;;;;5070335;28;20465;-64